sensor_id;sensor_type;location;lat;lon;timestamp;pressure;altitude;pressure_sealevel;temperature;humidity
57290;BME280;43523;53.022;-1.178;2023-04-26T00:00:22;101226.89;;;4.00;66.45
57290;BME280;43523;53.022;-1.178;2023-04-26T00:01:25;101226.36;;;4.24;65.98
57290;BME280;43523;53.022;-1.178;2023-04-26T00:02:27;101226.14;;;4.11;66.37
57290;BME280;43523;53.022;-1.178;2023-04-26T00:03:30;101226.42;;;4.31;65.57
57290;BME280;43523;53.022;-1.178;2023-04-26T00:04:32;101224.74;;;4.25;65.74
57290;BME280;43523;53.022;-1.178;2023-04-26T00:05:35;101223.85;;;4.08;66.62
57290;BME280;43523;53.022;-1.178;2023-04-26T00:06:37;101222.71;;;4.25;66.11
57290;BME280;43523;53.022;-1.178;2023-04-26T00:07:40;101222.51;;;3.99;66.05
57290;BME280;43523;53.022;-1.178;2023-04-26T00:08:43;101223.67;;;4.05;66.12
57290;BME280;43523;53.022;-1.178;2023-04-26T00:09:45;101224.55;;;3.85;65.75
57290;BME280;43523;53.022;-1.178;2023-04-26T00:10:48;101222.91;;;3.91;66.53
57290;BME280;43523;53.022;-1.178;2023-04-26T00:11:50;101222.20;;;3.00;68.72
57290;BME280;43523;53.022;-1.178;2023-04-26T00:12:53;101221.69;;;2.91;70.75
57290;BME280;43523;53.022;-1.178;2023-04-26T00:13:57;101220.76;;;2.83;71.37
57290;BME280;43523;53.022;-1.178;2023-04-26T00:14:59;101222.16;;;2.43;73.26
57290;BME280;43523;53.022;-1.178;2023-04-26T00:16:02;101217.54;;;2.74;73.35
57290;BME280;43523;53.022;-1.178;2023-04-26T00:17:04;101214.29;;;2.65;72.08
57290;BME280;43523;53.022;-1.178;2023-04-26T00:18:06;101210.23;;;3.06;70.36
57290;BME280;43523;53.022;-1.178;2023-04-26T00:19:08;101207.45;;;3.75;68.05
57290;BME280;43523;53.022;-1.178;2023-04-26T00:20:11;101207.27;;;3.89;66.98
57290;BME280;43523;53.022;-1.178;2023-04-26T00:21:14;101205.05;;;3.80;66.96
57290;BME280;43523;53.022;-1.178;2023-04-26T00:22:16;101204.66;;;3.98;66.49
57290;BME280;43523;53.022;-1.178;2023-04-26T00:23:18;101202.84;;;3.92;66.84
57290;BME280;43523;53.022;-1.178;2023-04-26T00:24:21;101202.26;;;3.95;66.97
57290;BME280;43523;53.022;-1.178;2023-04-26T00:25:23;101200.05;;;3.94;66.90
57290;BME280;43523;53.022;-1.178;2023-04-26T00:26:26;101199.43;;;3.45;68.06
57290;BME280;43523;53.022;-1.178;2023-04-26T00:27:27;101197.49;;;2.61;71.63
57290;BME280;43523;53.022;-1.178;2023-04-26T00:28:29;101197.36;;;2.85;70.95
57290;BME280;43523;53.022;-1.178;2023-04-26T00:29:33;101198.74;;;2.97;70.48
57290;BME280;43523;53.022;-1.178;2023-04-26T00:30:35;101193.23;;;3.21;69.60
57290;BME280;43523;53.022;-1.178;2023-04-26T00:31:37;101190.83;;;3.60;68.01
57290;BME280;43523;53.022;-1.178;2023-04-26T00:32:40;101189.82;;;3.96;67.12
57290;BME280;43523;53.022;-1.178;2023-04-26T00:33:46;101190.92;;;4.02;66.97
57290;BME280;43523;53.022;-1.178;2023-04-26T00:34:48;101191.71;;;4.07;67.35
57290;BME280;43523;53.022;-1.178;2023-04-26T00:35:51;101191.61;;;4.06;67.25
57290;BME280;43523;53.022;-1.178;2023-04-26T00:36:53;101190.47;;;3.87;68.65
57290;BME280;43523;53.022;-1.178;2023-04-26T00:37:56;101190.55;;;4.17;68.07
57290;BME280;43523;53.022;-1.178;2023-04-26T00:38:59;101190.24;;;4.12;67.98
57290;BME280;43523;53.022;-1.178;2023-04-26T00:40:01;101191.81;;;3.86;68.59
57290;BME280;43523;53.022;-1.178;2023-04-26T00:41:04;101188.94;;;4.12;69.10
57290;BME280;43523;53.022;-1.178;2023-04-26T00:42:06;101186.79;;;4.08;69.75
57290;BME280;43523;53.022;-1.178;2023-04-26T00:43:09;101186.94;;;3.99;70.28
57290;BME280;43523;53.022;-1.178;2023-04-26T00:44:11;101186.33;;;4.06;70.36
57290;BME280;43523;53.022;-1.178;2023-04-26T00:45:14;101187.81;;;4.02;70.80
57290;BME280;43523;53.022;-1.178;2023-04-26T00:46:17;101189.33;;;3.78;70.67
57290;BME280;43523;53.022;-1.178;2023-04-26T00:47:19;101190.37;;;3.94;70.33
57290;BME280;43523;53.022;-1.178;2023-04-26T00:48:22;101187.23;;;3.30;70.28
57290;BME280;43523;53.022;-1.178;2023-04-26T00:49:25;101189.56;;;2.96;71.98
57290;BME280;43523;53.022;-1.178;2023-04-26T00:50:28;101188.10;;;2.74;73.12
57290;BME280;43523;53.022;-1.178;2023-04-26T00:51:32;101186.76;;;2.78;72.83
57290;BME280;43523;53.022;-1.178;2023-04-26T00:52:34;101187.75;;;1.91;75.81
57290;BME280;43523;53.022;-1.178;2023-04-26T00:53:37;101185.59;;;1.51;78.28
57290;BME280;43523;53.022;-1.178;2023-04-26T00:54:39;101186.67;;;1.33;78.94
57290;BME280;43523;53.022;-1.178;2023-04-26T00:55:44;101182.84;;;2.95;73.83
57290;BME280;43523;53.022;-1.178;2023-04-26T00:56:46;101184.88;;;2.26;75.02
57290;BME280;43523;53.022;-1.178;2023-04-26T00:57:48;101183.90;;;2.06;76.25
57290;BME280;43523;53.022;-1.178;2023-04-26T00:58:50;101183.43;;;1.98;77.25
57290;BME280;43523;53.022;-1.178;2023-04-26T00:59:53;101180.04;;;2.65;74.99
57290;BME280;43523;53.022;-1.178;2023-04-26T01:00:55;101176.45;;;3.10;72.78
57290;BME280;43523;53.022;-1.178;2023-04-26T01:01:58;101178.24;;;3.43;71.06
57290;BME280;43523;53.022;-1.178;2023-04-26T01:03:00;101175.28;;;3.65;69.51
57290;BME280;43523;53.022;-1.178;2023-04-26T01:04:03;101177.50;;;3.74;69.68
57290;BME280;43523;53.022;-1.178;2023-04-26T01:05:05;101174.13;;;3.88;68.94
57290;BME280;43523;53.022;-1.178;2023-04-26T01:06:08;101174.60;;;3.96;68.69
57290;BME280;43523;53.022;-1.178;2023-04-26T01:07:10;101174.19;;;3.78;69.15
57290;BME280;43523;53.022;-1.178;2023-04-26T01:08:13;101172.76;;;3.83;68.81
57290;BME280;43523;53.022;-1.178;2023-04-26T01:09:17;101172.12;;;3.56;68.95
57290;BME280;43523;53.022;-1.178;2023-04-26T01:10:19;101169.42;;;3.86;68.38
57290;BME280;43523;53.022;-1.178;2023-04-26T01:11:22;101169.91;;;3.88;68.50
57290;BME280;43523;53.022;-1.178;2023-04-26T01:12:25;101168.04;;;3.81;68.27
57290;BME280;43523;53.022;-1.178;2023-04-26T01:13:28;101168.51;;;3.40;69.12
57290;BME280;43523;53.022;-1.178;2023-04-26T01:14:33;101166.04;;;3.44;69.70
57290;BME280;43523;53.022;-1.178;2023-04-26T01:15:36;101165.32;;;3.68;69.51
57290;BME280;43523;53.022;-1.178;2023-04-26T01:16:39;101164.32;;;2.98;70.67
57290;BME280;43523;53.022;-1.178;2023-04-26T01:17:45;101166.94;;;1.76;75.58
57290;BME280;43523;53.022;-1.178;2023-04-26T01:18:50;101164.23;;;1.38;79.00
57290;BME280;43523;53.022;-1.178;2023-04-26T01:19:52;101163.36;;;1.68;78.16
57290;BME280;43523;53.022;-1.178;2023-04-26T01:20:54;101163.35;;;1.79;78.13
57290;BME280;43523;53.022;-1.178;2023-04-26T01:21:57;101160.72;;;1.69;78.91
57290;BME280;43523;53.022;-1.178;2023-04-26T01:22:59;101159.80;;;1.44;80.19
57290;BME280;43523;53.022;-1.178;2023-04-26T01:24:02;101164.72;;;1.09;82.09
57290;BME280;43523;53.022;-1.178;2023-04-26T01:25:05;101165.80;;;0.90;82.61
57290;BME280;43523;53.022;-1.178;2023-04-26T01:26:08;101163.22;;;1.31;82.18
57290;BME280;43523;53.022;-1.178;2023-04-26T01:27:10;101164.64;;;1.07;82.18
57290;BME280;43523;53.022;-1.178;2023-04-26T01:28:13;101164.05;;;1.76;80.64
57290;BME280;43523;53.022;-1.178;2023-04-26T01:29:16;101160.47;;;2.48;78.15
57290;BME280;43523;53.022;-1.178;2023-04-26T01:30:19;101158.31;;;2.96;74.34
57290;BME280;43523;53.022;-1.178;2023-04-26T01:31:22;101159.97;;;3.25;72.84
57290;BME280;43523;53.022;-1.178;2023-04-26T01:32:24;101157.18;;;3.16;72.35
57290;BME280;43523;53.022;-1.178;2023-04-26T01:33:27;101155.39;;;3.32;71.15
57290;BME280;43523;53.022;-1.178;2023-04-26T01:34:29;101156.38;;;3.39;70.68
57290;BME280;43523;53.022;-1.178;2023-04-26T01:35:32;101155.31;;;3.71;69.86
57290;BME280;43523;53.022;-1.178;2023-04-26T01:36:34;101152.24;;;3.74;69.76
57290;BME280;43523;53.022;-1.178;2023-04-26T01:37:37;101151.42;;;3.56;70.16
57290;BME280;43523;53.022;-1.178;2023-04-26T01:38:39;101151.82;;;3.48;70.16
57290;BME280;43523;53.022;-1.178;2023-04-26T01:39:43;101151.07;;;3.60;69.55
57290;BME280;43523;53.022;-1.178;2023-04-26T01:40:45;101151.83;;;3.63;69.61
57290;BME280;43523;53.022;-1.178;2023-04-26T01:41:47;101152.51;;;3.82;69.91
57290;BME280;43523;53.022;-1.178;2023-04-26T01:42:50;101151.22;;;3.53;70.05
57290;BME280;43523;53.022;-1.178;2023-04-26T01:43:53;101149.87;;;3.63;69.54
57290;BME280;43523;53.022;-1.178;2023-04-26T01:44:55;101151.57;;;3.88;68.90
57290;BME280;43523;53.022;-1.178;2023-04-26T01:45:58;101148.15;;;3.00;70.36
57290;BME280;43523;53.022;-1.178;2023-04-26T01:47:00;101147.24;;;3.39;70.06
57290;BME280;43523;53.022;-1.178;2023-04-26T01:48:03;101145.57;;;3.51;69.21
57290;BME280;43523;53.022;-1.178;2023-04-26T01:49:05;101143.56;;;3.37;69.36
57290;BME280;43523;53.022;-1.178;2023-04-26T01:50:09;101141.97;;;3.60;69.84
57290;BME280;43523;53.022;-1.178;2023-04-26T01:51:11;101140.69;;;3.57;68.80
57290;BME280;43523;53.022;-1.178;2023-04-26T01:52:14;101139.73;;;3.58;68.71
57290;BME280;43523;53.022;-1.178;2023-04-26T01:53:16;101140.66;;;3.63;68.24
57290;BME280;43523;53.022;-1.178;2023-04-26T01:54:19;101139.69;;;3.84;68.10
57290;BME280;43523;53.022;-1.178;2023-04-26T01:55:22;101138.68;;;3.79;67.87
57290;BME280;43523;53.022;-1.178;2023-04-26T01:56:24;101140.12;;;3.77;68.19
57290;BME280;43523;53.022;-1.178;2023-04-26T01:57:26;101137.59;;;3.51;68.31
57290;BME280;43523;53.022;-1.178;2023-04-26T01:58:29;101138.80;;;3.49;68.41
57290;BME280;43523;53.022;-1.178;2023-04-26T01:59:31;101136.36;;;3.75;68.36
57290;BME280;43523;53.022;-1.178;2023-04-26T02:00:35;101136.66;;;3.43;68.75
57290;BME280;43523;53.022;-1.178;2023-04-26T02:01:40;101137.07;;;3.42;68.95
57290;BME280;43523;53.022;-1.178;2023-04-26T02:02:43;101135.40;;;3.61;68.65
57290;BME280;43523;53.022;-1.178;2023-04-26T02:03:46;101137.06;;;3.31;68.75
57290;BME280;43523;53.022;-1.178;2023-04-26T02:04:48;101134.61;;;3.56;68.50
57290;BME280;43523;53.022;-1.178;2023-04-26T02:05:50;101133.57;;;3.11;69.18
57290;BME280;43523;53.022;-1.178;2023-04-26T02:06:53;101133.08;;;3.27;69.50
57290;BME280;43523;53.022;-1.178;2023-04-26T02:07:55;101133.10;;;3.60;69.19
57290;BME280;43523;53.022;-1.178;2023-04-26T02:08:58;101130.96;;;3.36;69.26
57290;BME280;43523;53.022;-1.178;2023-04-26T02:10:01;101130.53;;;3.16;69.05
57290;BME280;43523;53.022;-1.178;2023-04-26T02:11:03;101130.20;;;3.36;69.00
57290;BME280;43523;53.022;-1.178;2023-04-26T02:12:06;101131.05;;;3.25;69.97
57290;BME280;43523;53.022;-1.178;2023-04-26T02:13:08;101132.57;;;3.44;69.91
57290;BME280;43523;53.022;-1.178;2023-04-26T02:14:10;101130.56;;;3.06;69.23
57290;BME280;43523;53.022;-1.178;2023-04-26T02:15:13;101130.65;;;3.06;70.25
57290;BME280;43523;53.022;-1.178;2023-04-26T02:16:16;101131.72;;;3.09;69.39
57290;BME280;43523;53.022;-1.178;2023-04-26T02:17:19;101134.30;;;2.78;69.33
57290;BME280;43523;53.022;-1.178;2023-04-26T02:18:21;101130.73;;;2.85;70.45
57290;BME280;43523;53.022;-1.178;2023-04-26T02:19:24;101130.81;;;3.02;71.35
57290;BME280;43523;53.022;-1.178;2023-04-26T02:20:26;101130.48;;;3.17;70.94
57290;BME280;43523;53.022;-1.178;2023-04-26T02:21:29;101128.54;;;2.94;70.82
57290;BME280;43523;53.022;-1.178;2023-04-26T02:22:31;101127.92;;;3.30;70.53
57290;BME280;43523;53.022;-1.178;2023-04-26T02:23:34;101125.85;;;3.04;70.99
57290;BME280;43523;53.022;-1.178;2023-04-26T02:24:37;101125.67;;;2.72;71.57
57290;BME280;43523;53.022;-1.178;2023-04-26T02:25:39;101125.76;;;2.64;70.89
57290;BME280;43523;53.022;-1.178;2023-04-26T02:26:43;101124.42;;;2.76;70.02
57290;BME280;43523;53.022;-1.178;2023-04-26T02:27:45;101126.79;;;2.73;70.09
57290;BME280;43523;53.022;-1.178;2023-04-26T02:28:48;101124.34;;;3.28;69.83
57290;BME280;43523;53.022;-1.178;2023-04-26T02:29:50;101126.31;;;3.03;69.51
57290;BME280;43523;53.022;-1.178;2023-04-26T02:30:53;101124.90;;;3.02;69.14
57290;BME280;43523;53.022;-1.178;2023-04-26T02:31:56;101125.49;;;3.20;69.56
57290;BME280;43523;53.022;-1.178;2023-04-26T02:32:59;101124.87;;;2.94;69.70
57290;BME280;43523;53.022;-1.178;2023-04-26T02:34:01;101125.59;;;2.94;69.79
57290;BME280;43523;53.022;-1.178;2023-04-26T02:35:04;101125.07;;;3.19;69.69
57290;BME280;43523;53.022;-1.178;2023-04-26T02:36:07;101126.46;;;2.94;69.77
57290;BME280;43523;53.022;-1.178;2023-04-26T02:37:09;101125.81;;;2.96;69.69
57290;BME280;43523;53.022;-1.178;2023-04-26T02:38:11;101126.02;;;3.27;69.50
57290;BME280;43523;53.022;-1.178;2023-04-26T02:39:14;101123.93;;;3.22;69.56
57290;BME280;43523;53.022;-1.178;2023-04-26T02:40:17;101124.01;;;3.20;69.68
57290;BME280;43523;53.022;-1.178;2023-04-26T02:41:19;101123.70;;;3.18;69.46
57290;BME280;43523;53.022;-1.178;2023-04-26T02:42:21;101122.92;;;2.92;69.46
57290;BME280;43523;53.022;-1.178;2023-04-26T02:43:24;101122.08;;;2.76;69.83
57290;BME280;43523;53.022;-1.178;2023-04-26T02:44:28;101121.43;;;3.03;70.36
57290;BME280;43523;53.022;-1.178;2023-04-26T02:45:31;101121.78;;;3.01;70.27
57290;BME280;43523;53.022;-1.178;2023-04-26T02:46:33;101119.44;;;3.07;71.06
57290;BME280;43523;53.022;-1.178;2023-04-26T02:47:36;101118.85;;;3.06;72.39
57290;BME280;43523;53.022;-1.178;2023-04-26T02:48:38;101117.54;;;3.05;77.21
57290;BME280;43523;53.022;-1.178;2023-04-26T02:49:40;101116.53;;;2.99;80.32
57290;BME280;43523;53.022;-1.178;2023-04-26T02:50:44;101116.84;;;2.97;78.74
57290;BME280;43523;53.022;-1.178;2023-04-26T02:51:47;101118.23;;;2.63;75.49
57290;BME280;43523;53.022;-1.178;2023-04-26T02:52:50;101121.18;;;2.27;75.95
57290;BME280;43523;53.022;-1.178;2023-04-26T02:53:52;101121.99;;;2.70;79.63
57290;BME280;43523;53.022;-1.178;2023-04-26T02:54:54;101120.65;;;2.53;80.93
57290;BME280;43523;53.022;-1.178;2023-04-26T02:55:57;101118.57;;;2.53;78.54
57290;BME280;43523;53.022;-1.178;2023-04-26T02:56:59;101120.86;;;2.79;79.85
57290;BME280;43523;53.022;-1.178;2023-04-26T02:58:01;101121.07;;;2.59;76.84
57290;BME280;43523;53.022;-1.178;2023-04-26T02:59:04;101122.73;;;2.14;76.37
57290;BME280;43523;53.022;-1.178;2023-04-26T03:00:07;101123.30;;;2.57;80.54
57290;BME280;43523;53.022;-1.178;2023-04-26T03:01:10;101126.29;;;2.55;81.08
57290;BME280;43523;53.022;-1.178;2023-04-26T03:02:12;101125.86;;;2.66;80.97
57290;BME280;43523;53.022;-1.178;2023-04-26T03:03:14;101124.65;;;2.67;80.31
57290;BME280;43523;53.022;-1.178;2023-04-26T03:04:16;101124.47;;;2.63;79.43
57290;BME280;43523;53.022;-1.178;2023-04-26T03:05:19;101125.96;;;2.82;77.86
57290;BME280;43523;53.022;-1.178;2023-04-26T03:06:22;101122.88;;;2.53;76.86
57290;BME280;43523;53.022;-1.178;2023-04-26T03:07:24;101125.34;;;2.65;75.72
57290;BME280;43523;53.022;-1.178;2023-04-26T03:08:26;101122.40;;;2.65;74.50
57290;BME280;43523;53.022;-1.178;2023-04-26T03:09:29;101118.18;;;2.66;73.96
57290;BME280;43523;53.022;-1.178;2023-04-26T03:10:32;101119.51;;;2.46;74.84
57290;BME280;43523;53.022;-1.178;2023-04-26T03:11:34;101118.03;;;2.79;75.03
57290;BME280;43523;53.022;-1.178;2023-04-26T03:12:37;101114.03;;;2.79;74.57
57290;BME280;43523;53.022;-1.178;2023-04-26T03:13:39;101113.32;;;2.82;74.12
57290;BME280;43523;53.022;-1.178;2023-04-26T03:14:43;101110.82;;;2.81;72.98
57290;BME280;43523;53.022;-1.178;2023-04-26T03:15:45;101106.53;;;2.50;72.64
57290;BME280;43523;53.022;-1.178;2023-04-26T03:16:47;101108.13;;;2.67;72.72
57290;BME280;43523;53.022;-1.178;2023-04-26T03:17:50;101104.88;;;2.73;72.71
57290;BME280;43523;53.022;-1.178;2023-04-26T03:18:53;101104.34;;;2.37;72.96
57290;BME280;43523;53.022;-1.178;2023-04-26T03:19:55;101105.27;;;2.31;73.33
57290;BME280;43523;53.022;-1.178;2023-04-26T03:20:57;101104.87;;;2.35;74.09
57290;BME280;43523;53.022;-1.178;2023-04-26T03:22:00;101104.91;;;2.40;74.33
57290;BME280;43523;53.022;-1.178;2023-04-26T03:23:03;101103.02;;;2.38;74.19
57290;BME280;43523;53.022;-1.178;2023-04-26T03:24:06;101104.20;;;2.40;73.98
57290;BME280;43523;53.022;-1.178;2023-04-26T03:25:09;101104.14;;;2.34;74.44
57290;BME280;43523;53.022;-1.178;2023-04-26T03:26:11;101103.31;;;1.97;76.05
57290;BME280;43523;53.022;-1.178;2023-04-26T03:27:14;101103.13;;;2.30;76.42
57290;BME280;43523;53.022;-1.178;2023-04-26T03:28:17;101104.50;;;2.01;76.44
57290;BME280;43523;53.022;-1.178;2023-04-26T03:29:19;101106.02;;;1.50;78.42
57290;BME280;43523;53.022;-1.178;2023-04-26T03:30:21;101108.94;;;0.96;81.70
57290;BME280;43523;53.022;-1.178;2023-04-26T03:31:24;101110.39;;;0.42;85.21
57290;BME280;43523;53.022;-1.178;2023-04-26T03:32:26;101109.56;;;0.47;85.29
57290;BME280;43523;53.022;-1.178;2023-04-26T03:33:29;101107.40;;;0.12;86.88
57290;BME280;43523;53.022;-1.178;2023-04-26T03:34:31;101106.76;;;0.16;87.52
57290;BME280;43523;53.022;-1.178;2023-04-26T03:35:34;101107.09;;;0.66;85.70
57290;BME280;43523;53.022;-1.178;2023-04-26T03:36:37;101104.08;;;1.33;81.14
57290;BME280;43523;53.022;-1.178;2023-04-26T03:37:39;101106.12;;;1.63;77.69
57290;BME280;43523;53.022;-1.178;2023-04-26T03:38:41;101106.81;;;1.77;77.84
57290;BME280;43523;53.022;-1.178;2023-04-26T03:39:45;101109.47;;;1.86;77.77
57290;BME280;43523;53.022;-1.178;2023-04-26T03:40:47;101110.64;;;1.97;77.24
57290;BME280;43523;53.022;-1.178;2023-04-26T03:41:50;101111.07;;;2.03;76.79
57290;BME280;43523;53.022;-1.178;2023-04-26T03:42:53;101108.09;;;1.63;76.50
57290;BME280;43523;53.022;-1.178;2023-04-26T03:43:55;101111.84;;;2.01;78.87
57290;BME280;43523;53.022;-1.178;2023-04-26T03:44:57;101112.62;;;2.09;81.56
57290;BME280;43523;53.022;-1.178;2023-04-26T03:46:00;101111.49;;;2.14;81.46
57290;BME280;43523;53.022;-1.178;2023-04-26T03:47:02;101108.78;;;1.92;80.22
57290;BME280;43523;53.022;-1.178;2023-04-26T03:48:04;101106.55;;;1.91;79.37
57290;BME280;43523;53.022;-1.178;2023-04-26T03:49:07;101107.08;;;2.00;79.01
57290;BME280;43523;53.022;-1.178;2023-04-26T03:50:09;101105.10;;;2.00;77.60
57290;BME280;43523;53.022;-1.178;2023-04-26T03:51:12;101104.55;;;2.21;77.20
57290;BME280;43523;53.022;-1.178;2023-04-26T03:52:14;101104.04;;;1.77;77.35
57290;BME280;43523;53.022;-1.178;2023-04-26T03:53:17;101104.84;;;1.80;77.82
57290;BME280;43523;53.022;-1.178;2023-04-26T03:54:19;101101.01;;;2.08;77.96
57290;BME280;43523;53.022;-1.178;2023-04-26T03:55:22;101104.86;;;2.03;77.55
57290;BME280;43523;53.022;-1.178;2023-04-26T03:56:24;101103.63;;;2.14;77.51
57290;BME280;43523;53.022;-1.178;2023-04-26T03:57:27;101102.58;;;2.20;77.21
57290;BME280;43523;53.022;-1.178;2023-04-26T03:58:29;101102.67;;;1.96;77.15
57290;BME280;43523;53.022;-1.178;2023-04-26T03:59:32;101101.27;;;2.18;77.06
57290;BME280;43523;53.022;-1.178;2023-04-26T04:00:37;101097.75;;;2.25;77.24
57290;BME280;43523;53.022;-1.178;2023-04-26T04:01:39;101096.99;;;2.07;78.52
57290;BME280;43523;53.022;-1.178;2023-04-26T04:02:41;101094.62;;;2.12;77.67
57290;BME280;43523;53.022;-1.178;2023-04-26T04:03:44;101090.85;;;2.14;77.34
57290;BME280;43523;53.022;-1.178;2023-04-26T04:04:46;101089.14;;;2.11;76.87
57290;BME280;43523;53.022;-1.178;2023-04-26T04:05:54;101091.22;;;2.11;76.79
57290;BME280;43523;53.022;-1.178;2023-04-26T04:06:58;101091.31;;;2.35;76.83
57290;BME280;43523;53.022;-1.178;2023-04-26T04:08:01;101093.19;;;2.06;76.92
57290;BME280;43523;53.022;-1.178;2023-04-26T04:09:04;101091.77;;;2.08;76.83
57290;BME280;43523;53.022;-1.178;2023-04-26T04:10:07;101090.15;;;2.06;76.40
57290;BME280;43523;53.022;-1.178;2023-04-26T04:11:09;101090.93;;;2.23;76.63
57290;BME280;43523;53.022;-1.178;2023-04-26T04:12:12;101088.77;;;2.49;76.58
57290;BME280;43523;53.022;-1.178;2023-04-26T04:13:14;101089.88;;;2.22;76.88
57290;BME280;43523;53.022;-1.178;2023-04-26T04:14:17;101086.37;;;2.22;77.21
57290;BME280;43523;53.022;-1.178;2023-04-26T04:15:20;101086.56;;;2.01;77.21
57290;BME280;43523;53.022;-1.178;2023-04-26T04:16:22;101085.13;;;2.23;77.48
57290;BME280;43523;53.022;-1.178;2023-04-26T04:17:25;101082.18;;;1.96;77.48
57290;BME280;43523;53.022;-1.178;2023-04-26T04:18:27;101082.27;;;2.05;77.35
57290;BME280;43523;53.022;-1.178;2023-04-26T04:19:29;101082.97;;;2.05;77.22
57290;BME280;43523;53.022;-1.178;2023-04-26T04:20:32;101081.24;;;2.04;77.27
57290;BME280;43523;53.022;-1.178;2023-04-26T04:21:35;101083.81;;;2.55;77.08
57290;BME280;43523;53.022;-1.178;2023-04-26T04:22:38;101081.33;;;2.09;76.93
57290;BME280;43523;53.022;-1.178;2023-04-26T04:23:41;101078.43;;;2.06;77.14
57290;BME280;43523;53.022;-1.178;2023-04-26T04:24:44;101077.95;;;2.30;77.20
57290;BME280;43523;53.022;-1.178;2023-04-26T04:25:52;101074.08;;;2.32;77.15
57290;BME280;43523;53.022;-1.178;2023-04-26T04:26:54;101072.18;;;2.58;77.18
57290;BME280;43523;53.022;-1.178;2023-04-26T04:27:56;101070.31;;;1.88;77.47
57290;BME280;43523;53.022;-1.178;2023-04-26T04:28:59;101070.05;;;2.36;77.87
57290;BME280;43523;53.022;-1.178;2023-04-26T04:30:02;101073.42;;;2.00;78.41
57290;BME280;43523;53.022;-1.178;2023-04-26T04:31:04;101072.39;;;1.92;78.76
57290;BME280;43523;53.022;-1.178;2023-04-26T04:32:07;101072.82;;;2.54;78.47
57290;BME280;43523;53.022;-1.178;2023-04-26T04:33:09;101070.43;;;1.97;79.87
57290;BME280;43523;53.022;-1.178;2023-04-26T04:34:11;101071.06;;;2.20;79.53
57290;BME280;43523;53.022;-1.178;2023-04-26T04:35:14;101075.31;;;2.00;80.26
57290;BME280;43523;53.022;-1.178;2023-04-26T04:36:17;101077.56;;;1.82;80.95
57290;BME280;43523;53.022;-1.178;2023-04-26T04:37:19;101080.53;;;1.85;79.73
57290;BME280;43523;53.022;-1.178;2023-04-26T04:38:22;101079.55;;;1.81;82.08
57290;BME280;43523;53.022;-1.178;2023-04-26T04:39:24;101081.51;;;2.05;84.88
57290;BME280;43523;53.022;-1.178;2023-04-26T04:40:27;101080.38;;;2.34;83.98
57290;BME280;43523;53.022;-1.178;2023-04-26T04:41:29;101081.92;;;2.29;84.99
57290;BME280;43523;53.022;-1.178;2023-04-26T04:42:32;101083.33;;;1.99;84.51
57290;BME280;43523;53.022;-1.178;2023-04-26T04:43:34;101086.88;;;1.95;81.27
57290;BME280;43523;53.022;-1.178;2023-04-26T04:44:37;101090.00;;;1.73;81.34
57290;BME280;43523;53.022;-1.178;2023-04-26T04:45:39;101096.38;;;1.55;82.38
57290;BME280;43523;53.022;-1.178;2023-04-26T04:46:43;101098.77;;;2.06;83.86
57290;BME280;43523;53.022;-1.178;2023-04-26T04:47:45;101097.47;;;1.60;83.70
57290;BME280;43523;53.022;-1.178;2023-04-26T04:48:48;101097.69;;;1.98;85.66
57290;BME280;43523;53.022;-1.178;2023-04-26T04:49:50;101099.87;;;1.49;87.35
57290;BME280;43523;53.022;-1.178;2023-04-26T04:50:52;101100.13;;;2.05;88.71
57290;BME280;43523;53.022;-1.178;2023-04-26T04:51:55;101101.85;;;2.01;87.66
57290;BME280;43523;53.022;-1.178;2023-04-26T04:52:57;101100.67;;;1.71;87.47
57290;BME280;43523;53.022;-1.178;2023-04-26T04:54:09;101095.24;;;1.52;86.53
57290;BME280;43523;53.022;-1.178;2023-04-26T04:55:12;101092.31;;;2.05;87.42
57290;BME280;43523;53.022;-1.178;2023-04-26T04:56:14;101086.45;;;1.59;87.61
57290;BME280;43523;53.022;-1.178;2023-04-26T04:57:16;101080.53;;;2.09;88.48
57290;BME280;43523;53.022;-1.178;2023-04-26T04:58:19;101076.64;;;1.87;87.72
57290;BME280;43523;53.022;-1.178;2023-04-26T04:59:21;101083.45;;;1.05;87.92
57290;BME280;43523;53.022;-1.178;2023-04-26T05:00:24;101091.58;;;1.03;88.75
57290;BME280;43523;53.022;-1.178;2023-04-26T05:01:26;101099.14;;;0.20;90.41
57290;BME280;43523;53.022;-1.178;2023-04-26T05:02:28;101100.84;;;0.00;91.68
57290;BME280;43523;53.022;-1.178;2023-04-26T05:03:31;101100.05;;;0.45;91.46
57290;BME280;43523;53.022;-1.178;2023-04-26T05:04:33;101098.51;;;0.49;90.65
57290;BME280;43523;53.022;-1.178;2023-04-26T05:05:36;101096.54;;;0.80;89.69
57290;BME280;43523;53.022;-1.178;2023-04-26T05:06:38;101090.54;;;1.63;88.75
57290;BME280;43523;53.022;-1.178;2023-04-26T05:07:41;101092.24;;;1.36;87.07
57290;BME280;43523;53.022;-1.178;2023-04-26T05:08:44;101092.72;;;1.51;85.99
57290;BME280;43523;53.022;-1.178;2023-04-26T05:09:46;101096.23;;;1.82;84.07
57290;BME280;43523;53.022;-1.178;2023-04-26T05:10:49;101096.64;;;1.96;82.74
57290;BME280;43523;53.022;-1.178;2023-04-26T05:11:51;101095.76;;;1.95;83.62
57290;BME280;43523;53.022;-1.178;2023-04-26T05:12:54;101097.08;;;1.50;85.29
57290;BME280;43523;53.022;-1.178;2023-04-26T05:13:57;101102.02;;;0.93;86.99
57290;BME280;43523;53.022;-1.178;2023-04-26T05:14:59;101099.90;;;1.80;85.22
57290;BME280;43523;53.022;-1.178;2023-04-26T05:16:02;101102.64;;;1.79;86.17
57290;BME280;43523;53.022;-1.178;2023-04-26T05:17:04;101106.31;;;2.51;84.98
57290;BME280;43523;53.022;-1.178;2023-04-26T05:18:06;101104.60;;;2.10;84.76
57290;BME280;43523;53.022;-1.178;2023-04-26T05:19:09;101104.06;;;2.22;84.02
57290;BME280;43523;53.022;-1.178;2023-04-26T05:20:12;101106.57;;;2.72;83.57
57290;BME280;43523;53.022;-1.178;2023-04-26T05:21:14;101106.32;;;2.26;85.28
57290;BME280;43523;53.022;-1.178;2023-04-26T05:22:17;101112.45;;;1.97;82.56
57290;BME280;43523;53.022;-1.178;2023-04-26T05:23:19;101113.66;;;2.20;82.80
57290;BME280;43523;53.022;-1.178;2023-04-26T05:24:21;101111.20;;;2.26;84.97
57290;BME280;43523;53.022;-1.178;2023-04-26T05:25:24;101113.18;;;2.12;85.18
57290;BME280;43523;53.022;-1.178;2023-04-26T05:26:27;101114.85;;;2.21;87.59
57290;BME280;43523;53.022;-1.178;2023-04-26T05:27:29;101117.39;;;2.36;84.56